sensor_id;sensor_type;location;lat;lon;timestamp;temperature;humidity
1678;DHT22;6034;46.864;15.216;2024-02-21T06:02:35;7.20;79.90
1678;DHT22;6034;46.864;15.216;2024-02-21T06:05:03;7.10;79.60
1678;DHT22;6034;46.864;15.216;2024-02-21T06:07:33;7.00;80.90
1678;DHT22;6034;46.864;15.216;2024-02-21T06:10:01;7.00;80.50
1678;DHT22;6034;46.864;15.216;2024-02-21T06:12:28;7.00;79.90
1678;DHT22;6034;46.864;15.216;2024-02-21T06:14:55;7.10;78.60
1678;DHT22;6034;46.864;15.216;2024-02-21T06:17:23;7.00;77.70
1678;DHT22;6034;46.864;15.216;2024-02-21T06:19:52;7.00;78.70
1678;DHT22;6034;46.864;15.216;2024-02-21T06:22:19;7.00;78.90
1678;DHT22;6034;46.864;15.216;2024-02-21T06:24:46;7.00;78.70
1678;DHT22;6034;46.864;15.216;2024-02-21T06:27:14;7.00;78.80
1678;DHT22;6034;46.864;15.216;2024-02-21T06:29:42;6.90;78.90
1678;DHT22;6034;46.864;15.216;2024-02-21T06:32:09;6.90;80.10
1678;DHT22;6034;46.864;15.216;2024-02-21T06:34:37;6.80;81.00
1678;DHT22;6034;46.864;15.216;2024-02-21T06:37:05;6.80;81.30
1678;DHT22;6034;46.864;15.216;2024-02-21T06:39:33;6.90;80.40
1678;DHT22;6034;46.864;15.216;2024-02-21T06:42:02;7.00;80.10
1678;DHT22;6034;46.864;15.216;2024-02-21T06:44:29;7.00;80.40
1678;DHT22;6034;46.864;15.216;2024-02-21T06:46:57;7.10;80.60
1678;DHT22;6034;46.864;15.216;2024-02-21T06:49:25;7.10;81.00
1678;DHT22;6034;46.864;15.216;2024-02-21T06:51:52;7.10;81.80
1678;DHT22;6034;46.864;15.216;2024-02-21T06:54:22;7.20;82.40
1678;DHT22;6034;46.864;15.216;2024-02-21T06:56:49;7.20;83.80
1678;DHT22;6034;46.864;15.216;2024-02-21T06:59:20;7.30;83.80
1678;DHT22;6034;46.864;15.216;2024-02-21T07:01:48;7.40;83.30
1678;DHT22;6034;46.864;15.216;2024-02-21T07:04:16;7.50;83.70
1678;DHT22;6034;46.864;15.216;2024-02-21T07:06:43;7.60;83.80
1678;DHT22;6034;46.864;15.216;2024-02-21T07:09:10;7.70;85.60
1678;DHT22;6034;46.864;15.216;2024-02-21T07:11:39;7.60;85.30
1678;DHT22;6034;46.864;15.216;2024-02-21T07:14:06;7.30;88.30
1678;DHT22;6034;46.864;15.216;2024-02-21T07:16:34;7.10;89.60
1678;DHT22;6034;46.864;15.216;2024-02-21T07:19:01;7.10;88.30
1678;DHT22;6034;46.864;15.216;2024-02-21T07:21:32;7.30;89.20
1678;DHT22;6034;46.864;15.216;2024-02-21T07:24:00;7.30;89.30
1678;DHT22;6034;46.864;15.216;2024-02-21T07:26:27;7.30;89.00
1678;DHT22;6034;46.864;15.216;2024-02-21T07:28:56;7.10;88.90
1678;DHT22;6034;46.864;15.216;2024-02-21T07:31:23;7.10;89.20
1678;DHT22;6034;46.864;15.216;2024-02-21T07:33:52;7.00;87.50
1678;DHT22;6034;46.864;15.216;2024-02-21T07:36:27;7.10;86.30
1678;DHT22;6034;46.864;15.216;2024-02-21T07:38:54;6.90;85.90
1678;DHT22;6034;46.864;15.216;2024-02-21T07:41:22;6.80;85.80
1678;DHT22;6034;46.864;15.216;2024-02-21T07:43:49;6.60;85.50
1678;DHT22;6034;46.864;15.216;2024-02-21T07:46:19;6.30;86.30
1678;DHT22;6034;46.864;15.216;2024-02-21T07:48:46;6.60;86.20
1678;DHT22;6034;46.864;15.216;2024-02-21T07:51:14;6.80;86.20
1678;DHT22;6034;46.864;15.216;2024-02-21T07:53:43;7.00;86.00
1678;DHT22;6034;46.864;15.216;2024-02-21T07:56:16;7.10;86.10
1678;DHT22;6034;46.864;15.216;2024-02-21T07:58:43;7.10;86.40
1678;DHT22;6034;46.864;15.216;2024-02-21T08:01:10;7.30;87.60
1678;DHT22;6034;46.864;15.216;2024-02-21T08:03:39;7.40;87.90
1678;DHT22;6034;46.864;15.216;2024-02-21T08:06:12;7.40;87.60
1678;DHT22;6034;46.864;15.216;2024-02-21T08:08:39;7.50;88.10
1678;DHT22;6034;46.864;15.216;2024-02-21T08:11:06;7.60;88.60
1678;DHT22;6034;46.864;15.216;2024-02-21T08:13:34;7.60;88.10
1678;DHT22;6034;46.864;15.216;2024-02-21T08:16:01;7.50;87.60
1678;DHT22;6034;46.864;15.216;2024-02-21T08:18:29;7.70;88.40
1678;DHT22;6034;46.864;15.216;2024-02-21T08:20:58;7.90;88.70
1678;DHT22;6034;46.864;15.216;2024-02-21T08:23:26;8.10;89.00
1678;DHT22;6034;46.864;15.216;2024-02-21T08:25:53;7.70;87.90
1678;DHT22;6034;46.864;15.216;2024-02-21T08:28:20;7.60;88.40
1678;DHT22;6034;46.864;15.216;2024-02-21T08:30:48;7.60;88.30
1678;DHT22;6034;46.864;15.216;2024-02-21T08:33:15;7.70;88.40
1678;DHT22;6034;46.864;15.216;2024-02-21T08:35:43;8.00;88.50
1678;DHT22;6034;46.864;15.216;2024-02-21T08:38:12;8.10;88.80
1678;DHT22;6034;46.864;15.216;2024-02-21T08:40:39;8.10;87.40
1678;DHT22;6034;46.864;15.216;2024-02-21T08:43:06;8.20;86.40
1678;DHT22;6034;46.864;15.216;2024-02-21T08:45:34;8.20;85.30
1678;DHT22;6034;46.864;15.216;2024-02-21T08:48:01;8.60;83.90
1678;DHT22;6034;46.864;15.216;2024-02-21T08:50:29;8.70;83.60
1678;DHT22;6034;46.864;15.216;2024-02-21T08:52:56;8.60;84.30
1678;DHT22;6034;46.864;15.216;2024-02-21T08:55:25;8.40;83.70
1678;DHT22;6034;46.864;15.216;2024-02-21T08:57:52;8.40;82.80
1678;DHT22;6034;46.864;15.216;2024-02-21T09:00:20;8.40;82.40
1678;DHT22;6034;46.864;15.216;2024-02-21T09:02:52;8.40;81.10
1678;DHT22;6034;46.864;15.216;2024-02-21T09:05:21;8.40;81.70
1678;DHT22;6034;46.864;15.216;2024-02-21T09:07:50;8.50;82.10
1678;DHT22;6034;46.864;15.216;2024-02-21T09:10:17;8.60;82.00
1678;DHT22;6034;46.864;15.216;2024-02-21T09:12:46;8.80;82.20
1678;DHT22;6034;46.864;15.216;2024-02-21T09:15:13;9.00;82.60
1678;DHT22;6034;46.864;15.216;2024-02-21T09:17:41;9.00;79.80
1678;DHT22;6034;46.864;15.216;2024-02-21T09:20:09;8.70;80.20
1678;DHT22;6034;46.864;15.216;2024-02-21T09:22:38;8.80;81.80
1678;DHT22;6034;46.864;15.216;2024-02-21T09:25:06;8.80;82.70
1678;DHT22;6034;46.864;15.216;2024-02-21T09:27:34;8.80;84.60
1678;DHT22;6034;46.864;15.216;2024-02-21T09:30:03;8.70;84.30
1678;DHT22;6034;46.864;15.216;2024-02-21T09:32:31;8.80;83.50
1678;DHT22;6034;46.864;15.216;2024-02-21T09:34:58;9.00;82.20
1678;DHT22;6034;46.864;15.216;2024-02-21T09:37:26;8.70;78.10
1678;DHT22;6034;46.864;15.216;2024-02-21T09:39:53;8.70;79.60
1678;DHT22;6034;46.864;15.216;2024-02-21T09:42:21;8.70;80.20
1678;DHT22;6034;46.864;15.216;2024-02-21T09:44:51;8.80;80.90
1678;DHT22;6034;46.864;15.216;2024-02-21T09:47:24;8.80;79.90
1678;DHT22;6034;46.864;15.216;2024-02-21T09:49:51;8.90;80.50
1678;DHT22;6034;46.864;15.216;2024-02-21T09:52:21;8.90;81.30
1678;DHT22;6034;46.864;15.216;2024-02-21T09:54:49;9.00;79.40
1678;DHT22;6034;46.864;15.216;2024-02-21T09:57:18;9.10;80.30
1678;DHT22;6034;46.864;15.216;2024-02-21T09:59:47;9.20;81.20
1678;DHT22;6034;46.864;15.216;2024-02-21T10:02:16;9.40;82.10
1678;DHT22;6034;46.864;15.216;2024-02-21T10:04:45;9.10;80.10
1678;DHT22;6034;46.864;15.216;2024-02-21T10:07:13;9.20;80.20
1678;DHT22;6034;46.864;15.216;2024-02-21T10:09:40;9.20;78.90
1678;DHT22;6034;46.864;15.216;2024-02-21T10:12:09;9.30;79.90
1678;DHT22;6034;46.864;15.216;2024-02-21T10:14:38;9.50;80.90
1678;DHT22;6034;46.864;15.216;2024-02-21T10:17:17;9.60;80.90
1678;DHT22;6034;46.864;15.216;2024-02-21T10:19:47;9.70;79.90
1678;DHT22;6034;46.864;15.216;2024-02-21T10:22:17;9.80;80.60
1678;DHT22;6034;46.864;15.216;2024-02-21T10:24:47;10.00;81.10
1678;DHT22;6034;46.864;15.216;2024-02-21T10:27:15;10.10;80.90
1678;DHT22;6034;46.864;15.216;2024-02-21T10:29:48;10.10;80.60
1678;DHT22;6034;46.864;15.216;2024-02-21T10:32:18;10.50;80.60
1678;DHT22;6034;46.864;15.216;2024-02-21T10:34:48;10.80;79.40
1678;DHT22;6034;46.864;15.216;2024-02-21T10:37:17;11.20;76.10
1678;DHT22;6034;46.864;15.216;2024-02-21T10:39:45;10.90;71.50
1678;DHT22;6034;46.864;15.216;2024-02-21T10:42:12;10.90;71.80
1678;DHT22;6034;46.864;15.216;2024-02-21T10:44:41;10.80;71.30
1678;DHT22;6034;46.864;15.216;2024-02-21T10:47:11;10.90;70.60
1678;DHT22;6034;46.864;15.216;2024-02-21T10:49:44;10.90;70.50
1678;DHT22;6034;46.864;15.216;2024-02-21T10:52:22;10.80;70.70
1678;DHT22;6034;46.864;15.216;2024-02-21T10:55:03;10.90;72.40
1678;DHT22;6034;46.864;15.216;2024-02-21T10:57:32;10.90;71.80
1678;DHT22;6034;46.864;15.216;2024-02-21T10:59:59;11.00;72.90
1678;DHT22;6034;46.864;15.216;2024-02-21T11:02:29;11.00;73.30
1678;DHT22;6034;46.864;15.216;2024-02-21T11:04:57;10.90;72.80
1678;DHT22;6034;46.864;15.216;2024-02-21T11:07:26;10.60;70.30
1678;DHT22;6034;46.864;15.216;2024-02-21T11:09:54;11.00;71.30
1678;DHT22;6034;46.864;15.216;2024-02-21T11:12:22;11.30;71.50
1678;DHT22;6034;46.864;15.216;2024-02-21T11:14:50;11.40;71.60
1678;DHT22;6034;46.864;15.216;2024-02-21T11:17:18;11.60;73.40
1678;DHT22;6034;46.864;15.216;2024-02-21T11:19:47;11.70;71.70
1678;DHT22;6034;46.864;15.216;2024-02-21T11:22:18;11.80;72.70
1678;DHT22;6034;46.864;15.216;2024-02-21T11:24:48;12.00;74.00
1678;DHT22;6034;46.864;15.216;2024-02-21T11:27:16;12.20;73.40
1678;DHT22;6034;46.864;15.216;2024-02-21T11:29:47;11.90;71.20
1678;DHT22;6034;46.864;15.216;2024-02-21T11:32:15;11.70;70.90
1678;DHT22;6034;46.864;15.216;2024-02-21T11:34:54;12.00;72.20
1678;DHT22;6034;46.864;15.216;2024-02-21T11:37:23;12.10;72.20
1678;DHT22;6034;46.864;15.216;2024-02-21T11:39:53;11.80;71.70
1678;DHT22;6034;46.864;15.216;2024-02-21T11:42:21;11.70;73.40
1678;DHT22;6034;46.864;15.216;2024-02-21T11:44:48;11.70;73.00
1678;DHT22;6034;46.864;15.216;2024-02-21T11:47:16;11.60;71.20
1678;DHT22;6034;46.864;15.216;2024-02-21T11:49:45;12.00;71.80
1678;DHT22;6034;46.864;15.216;2024-02-21T11:52:16;12.00;69.90
1678;DHT22;6034;46.864;15.216;2024-02-21T11:54:46;12.10;71.00
1678;DHT22;6034;46.864;15.216;2024-02-21T11:57:15;12.10;70.40
1678;DHT22;6034;46.864;15.216;2024-02-21T11:59:45;12.10;71.20
1678;DHT22;6034;46.864;15.216;2024-02-21T12:02:13;12.00;70.10
1678;DHT22;6034;46.864;15.216;2024-02-21T12:04:42;12.00;71.30
1678;DHT22;6034;46.864;15.216;2024-02-21T12:07:10;12.20;72.00
1678;DHT22;6034;46.864;15.216;2024-02-21T12:09:38;12.20;72.10
1678;DHT22;6034;46.864;15.216;2024-02-21T12:12:06;12.30;72.10
1678;DHT22;6034;46.864;15.216;2024-02-21T12:14:35;12.20;71.80
1678;DHT22;6034;46.864;15.216;2024-02-21T12:17:04;12.20;73.00
1678;DHT22;6034;46.864;15.216;2024-02-21T12:19:32;12.30;71.50
1678;DHT22;6034;46.864;15.216;2024-02-21T12:22:00;12.30;73.10
1678;DHT22;6034;46.864;15.216;2024-02-21T12:24:31;12.30;72.20
1678;DHT22;6034;46.864;15.216;2024-02-21T12:26:59;12.40;71.70
1678;DHT22;6034;46.864;15.216;2024-02-21T12:29:29;12.50;72.90
1678;DHT22;6034;46.864;15.216;2024-02-21T12:31:58;12.30;71.00
1678;DHT22;6034;46.864;15.216;2024-02-21T12:34:25;12.40;72.50
1678;DHT22;6034;46.864;15.216;2024-02-21T12:36:53;12.40;70.40
1678;DHT22;6034;46.864;15.216;2024-02-21T12:39:20;12.20;68.30
1678;DHT22;6034;46.864;15.216;2024-02-21T12:41:47;12.30;69.50
1678;DHT22;6034;46.864;15.216;2024-02-21T12:44:15;12.30;69.70
1678;DHT22;6034;46.864;15.216;2024-02-21T12:46:44;12.20;70.70
1678;DHT22;6034;46.864;15.216;2024-02-21T12:49:12;12.10;69.80
1678;DHT22;6034;46.864;15.216;2024-02-21T12:51:41;12.30;71.70
1678;DHT22;6034;46.864;15.216;2024-02-21T12:54:09;12.30;71.30
1678;DHT22;6034;46.864;15.216;2024-02-21T12:56:36;12.30;70.10
1678;DHT22;6034;46.864;15.216;2024-02-21T12:59:05;12.30;68.30
1678;DHT22;6034;46.864;15.216;2024-02-21T13:01:35;12.40;68.60
1678;DHT22;6034;46.864;15.216;2024-02-21T13:04:02;12.40;70.50
1678;DHT22;6034;46.864;15.216;2024-02-21T13:06:31;12.40;70.50
1678;DHT22;6034;46.864;15.216;2024-02-21T13:08:58;12.40;71.70
1678;DHT22;6034;46.864;15.216;2024-02-21T13:11:29;12.50;71.80
1678;DHT22;6034;46.864;15.216;2024-02-21T13:13:56;12.50;71.60
1678;DHT22;6034;46.864;15.216;2024-02-21T13:16:24;12.40;71.30
1678;DHT22;6034;46.864;15.216;2024-02-21T13:18:53;12.50;70.60
1678;DHT22;6034;46.864;15.216;2024-02-21T13:21:20;12.40;68.80
1678;DHT22;6034;46.864;15.216;2024-02-21T13:23:49;12.30;67.70
1678;DHT22;6034;46.864;15.216;2024-02-21T13:26:16;12.40;71.40
1678;DHT22;6034;46.864;15.216;2024-02-21T13:28:45;12.30;70.50
1678;DHT22;6034;46.864;15.216;2024-02-21T13:31:14;12.30;69.00
1678;DHT22;6034;46.864;15.216;2024-02-21T13:33:42;12.40;67.70
1678;DHT22;6034;46.864;15.216;2024-02-21T13:36:10;12.40;68.10
1678;DHT22;6034;46.864;15.216;2024-02-21T13:38:37;12.60;68.20
1678;DHT22;6034;46.864;15.216;2024-02-21T13:41:06;12.70;67.60
1678;DHT22;6034;46.864;15.216;2024-02-21T13:43:34;12.80;67.80
1678;DHT22;6034;46.864;15.216;2024-02-21T13:46:02;12.80;63.50
1678;DHT22;6034;46.864;15.216;2024-02-21T13:48:31;12.80;65.00
1678;DHT22;6034;46.864;15.216;2024-02-21T13:50:59;12.80;64.60
1678;DHT22;6034;46.864;15.216;2024-02-21T13:53:28;13.10;67.00
1678;DHT22;6034;46.864;15.216;2024-02-21T13:55:55;13.10;66.70
1678;DHT22;6034;46.864;15.216;2024-02-21T13:58:24;13.00;67.60
1678;DHT22;6034;46.864;15.216;2024-02-21T14:00:52;12.80;67.90
1678;DHT22;6034;46.864;15.216;2024-02-21T14:03:19;12.90;68.20
1678;DHT22;6034;46.864;15.216;2024-02-21T14:05:47;12.80;66.40
1678;DHT22;6034;46.864;15.216;2024-02-21T14:08:15;12.80;68.20
1678;DHT22;6034;46.864;15.216;2024-02-21T14:10:42;12.90;68.70
1678;DHT22;6034;46.864;15.216;2024-02-21T14:13:09;12.80;67.60
1678;DHT22;6034;46.864;15.216;2024-02-21T14:15:41;12.80;66.90
1678;DHT22;6034;46.864;15.216;2024-02-21T14:18:10;12.80;67.30
1678;DHT22;6034;46.864;15.216;2024-02-21T14:20:39;12.80;66.30
1678;DHT22;6034;46.864;15.216;2024-02-21T14:23:06;12.80;67.10
1678;DHT22;6034;46.864;15.216;2024-02-21T14:25:34;12.80;68.10
1678;DHT22;6034;46.864;15.216;2024-02-21T14:28:01;12.80;65.60
1678;DHT22;6034;46.864;15.216;2024-02-21T14:30:28;12.90;66.00
1678;DHT22;6034;46.864;15.216;2024-02-21T14:32:57;12.70;65.70
1678;DHT22;6034;46.864;15.216;2024-02-21T14:35:24;12.80;65.30
1678;DHT22;6034;46.864;15.216;2024-02-21T14:37:52;12.80;65.50
1678;DHT22;6034;46.864;15.216;2024-02-21T14:40:21;12.70;68.30
1678;DHT22;6034;46.864;15.216;2024-02-21T14:42:49;12.90;69.50
1678;DHT22;6034;46.864;15.216;2024-02-21T14:45:16;12.90;69.70
1678;DHT22;6034;46.864;15.216;2024-02-21T14:47:43;12.80;67.70
1678;DHT22;6034;46.864;15.216;2024-02-21T14:50:12;12.80;67.70
1678;DHT22;6034;46.864;15.216;2024-02-21T14:52:39;12.70;68.10
1678;DHT22;6034;46.864;15.216;2024-02-21T14:55:07;12.60;68.70
1678;DHT22;6034;46.864;15.216;2024-02-21T14:57:35;12.60;67.60
1678;DHT22;6034;46.864;15.216;2024-02-21T15:00:06;12.60;68.80
1678;DHT22;6034;46.864;15.216;2024-02-21T15:02:34;12.80;69.70
1678;DHT22;6034;46.864;15.216;2024-02-21T15:05:02;12.60;69.80
1678;DHT22;6034;46.864;15.216;2024-02-21T15:07:32;12.70;69.90
1678;DHT22;6034;46.864;15.216;2024-02-21T15:10:00;12.90;69.60
1678;DHT22;6034;46.864;15.216;2024-02-21T15:12:28;12.90;70.10
1678;DHT22;6034;46.864;15.216;2024-02-21T15:14:57;12.80;69.60
1678;DHT22;6034;46.864;15.216;2024-02-21T15:17:25;12.80;70.00
1678;DHT22;6034;46.864;15.216;2024-02-21T15:19:52;12.80;68.70
1678;DHT22;6034;46.864;15.216;2024-02-21T15:22:21;12.70;69.20
1678;DHT22;6034;46.864;15.216;2024-02-21T15:24:50;12.60;69.40
1678;DHT22;6034;46.864;15.216;2024-02-21T15:27:18;12.60;68.80
1678;DHT22;6034;46.864;15.216;2024-02-21T15:29:46;12.50;69.10
1678;DHT22;6034;46.864;15.216;2024-02-21T15:32:13;12.40;68.60
1678;DHT22;6034;46.864;15.216;2024-02-21T15:34:40;12.40;69.00
1678;DHT22;6034;46.864;15.216;2024-02-21T15:37:08;12.40;70.10
1678;DHT22;6034;46.864;15.216;2024-02-21T15:39:36;12.40;69.00
1678;DHT22;6034;46.864;15.216;2024-02-21T15:42:05;12.40;68.90
1678;DHT22;6034;46.864;15.216;2024-02-21T15:44:33;12.30;68.40
1678;DHT22;6034;46.864;15.216;2024-02-21T15:47:00;12.20;68.80
1678;DHT22;6034;46.864;15.216;2024-02-21T15:49:28;12.20;69.00
1678;DHT22;6034;46.864;15.216;2024-02-21T15:51:55;12.10;68.90
1678;DHT22;6034;46.864;15.216;2024-02-21T15:54:22;12.10;69.00
1678;DHT22;6034;46.864;15.216;2024-02-21T15:56:53;12.00;68.70
1678;DHT22;6034;46.864;15.216;2024-02-21T15:59:24;11.90;68.40
1678;DHT22;6034;46.864;15.216;2024-02-21T16:01:51;11.90;69.00
1678;DHT22;6034;46.864;15.216;2024-02-21T16:04:19;11.90;69.00
1678;DHT22;6034;46.864;15.216;2024-02-21T16:06:46;11.90;68.70
1678;DHT22;6034;46.864;15.216;2024-02-21T16:09:17;11.80;69.40
1678;DHT22;6034;46.864;15.216;2024-02-21T16:11:44;11.80;69.50
1678;DHT22;6034;46.864;15.216;2024-02-21T16:14:12;11.80;69.40
1678;DHT22;6034;46.864;15.216;2024-02-21T16:16:40;11.80;69.50
1678;DHT22;6034;46.864;15.216;2024-02-21T16:19:09;11.90;70.20
1678;DHT22;6034;46.864;15.216;2024-02-21T16:21:36;11.90;70.90
1678;DHT22;6034;46.864;15.216;2024-02-21T16:24:04;11.80;71.50
1678;DHT22;6034;46.864;15.216;2024-02-21T16:26:34;11.80;70.10
1678;DHT22;6034;46.864;15.216;2024-02-21T16:29:02;11.90;70.90
1678;DHT22;6034;46.864;15.216;2024-02-21T16:31:30;11.70;71.40
1678;DHT22;6034;46.864;15.216;2024-02-21T16:33:58;11.60;71.00
1678;DHT22;6034;46.864;15.216;2024-02-21T16:36:26;11.60;70.70
1678;DHT22;6034;46.864;15.216;2024-02-21T16:38:53;11.60;70.10
1678;DHT22;6034;46.864;15.216;2024-02-21T16:41:20;11.50;69.80
1678;DHT22;6034;46.864;15.216;2024-02-21T16:43:49;11.50;69.50
1678;DHT22;6034;46.864;15.216;2024-02-21T16:46:16;11.50;68.60
1678;DHT22;6034;46.864;15.216;2024-02-21T16:48:45;11.40;69.50
1678;DHT22;6034;46.864;15.216;2024-02-21T16:51:14;11.30;70.20
1678;DHT22;6034;46.864;15.216;2024-02-21T16:53:41;11.20;70.80
1678;DHT22;6034;46.864;15.216;2024-02-21T16:56:09;11.30;71.40
1678;DHT22;6034;46.864;15.216;2024-02-21T16:58:37;11.20;69.70
1678;DHT22;6034;46.864;15.216;2024-02-21T17:01:04;11.20;70.10
1678;DHT22;6034;46.864;15.216;2024-02-21T17:03:32;11.20;70.20
1678;DHT22;6034;46.864;15.216;2024-02-21T17:06:00;11.20;70.90
1678;DHT22;6034;46.864;15.216;2024-02-21T17:08:29;11.00;70.20
1678;DHT22;6034;46.864;15.216;2024-02-21T17:10:57;10.80;70.30
1678;DHT22;6034;46.864;15.216;2024-02-21T17:13:25;10.80;71.00
1678;DHT22;6034;46.864;15.216;2024-02-21T17:15:52;10.90;70.10
1678;DHT22;6034;46.864;15.216;2024-02-21T17:18:19;10.80;71.00
1678;DHT22;6034;46.864;15.216;2024-02-21T17:20:48;10.90;70.90
1678;DHT22;6034;46.864;15.216;2024-02-21T17:23:15;10.90;70.40
1678;DHT22;6034;46.864;15.216;2024-02-21T17:25:44;10.90;71.00
1678;DHT22;6034;46.864;15.216;2024-02-21T17:28:11;10.90;70.20
1678;DHT22;6034;46.864;15.216;2024-02-21T17:30:39;10.90;70.70
1678;DHT22;6034;46.864;15.216;2024-02-21T17:33:07;10.90;70.10
1678;DHT22;6034;46.864;15.216;2024-02-21T17:35:34;10.90;69.80
1678;DHT22;6034;46.864;15.216;2024-02-21T17:38:02;10.90;69.30
1678;DHT22;6034;46.864;15.216;2024-02-21T17:40:31;10.90;70.00
1678;DHT22;6034;46.864;15.216;2024-02-21T17:43:01;10.70;70.00
1678;DHT22;6034;46.864;15.216;2024-02-21T17:45:29;10.80;70.10
1678;DHT22;6034;46.864;15.216;2024-02-21T17:47:56;10.80;70.70
1678;DHT22;6034;46.864;15.216;2024-02-21T17:50:24;10.70;70.60
1678;DHT22;6034;46.864;15.216;2024-02-21T17:52:52;10.80;71.00
1678;DHT22;6034;46.864;15.216;2024-02-21T17:55:19;10.80;70.70
1678;DHT22;6034;46.864;15.216;2024-02-21T17:57:46;10.80;70.10
1678;DHT22;6034;46.864;15.216;2024-02-21T18:00:17;10.80;69.80
1678;DHT22;6034;46.864;15.216;2024-02-21T18:02:45;10.50;69.70
1678;DHT22;6034;46.864;15.216;2024-02-21T18:05:13;10.50;70.20
1678;DHT22;6034;46.864;15.216;2024-02-21T18:07:42;10.40;69.90
1678;DHT22;6034;46.864;15.216;2024-02-21T18:10:09;10.30;69.70
1678;DHT22;6034;46.864;15.216;2024-02-21T18:12:37;10.30;69.70
1678;DHT22;6034;46.864;15.216;2024-02-21T18:15:06;10.40;69.70
1678;DHT22;6034;46.864;15.216;2024-02-21T18:17:37;10.50;69.60
1678;DHT22;6034;46.864;15.216;2024-02-21T18:20:07;10.10;68.60
1678;DHT22;6034;46.864;15.216;2024-02-21T18:22:35;10.10;70.70
1678;DHT22;6034;46.864;15.216;2024-02-21T18:25:03;10.10;69.40
1678;DHT22;6034;46.864;15.216;2024-02-21T18:27:34;10.10;70.10
1678;DHT22;6034;46.864;15.216;2024-02-21T18:30:01;9.90;71.00
1678;DHT22;6034;46.864;15.216;2024-02-21T18:32:29;10.00;70.60
1678;DHT22;6034;46.864;15.216;2024-02-21T18:34:58;10.00;69.20
1678;DHT22;6034;46.864;15.216;2024-02-21T18:37:26;9.90;71.20
1678;DHT22;6034;46.864;15.216;2024-02-21T18:39:54;9.90;71.20
1678;DHT22;6034;46.864;15.216;2024-02-21T18:42:22;10.10;70.30
1678;DHT22;6034;46.864;15.216;2024-02-21T18:44:49;10.20;69.80
1678;DHT22;6034;46.864;15.216;2024-02-21T18:47:19;10.10;69.50
1678;DHT22;6034;46.864;15.216;2024-02-21T18:49:49;10.00;70.20
1678;DHT22;6034;46.864;15.216;2024-02-21T18:52:19;9.80;71.00
1678;DHT22;6034;46.864;15.216;2024-02-21T18:54:47;10.00;71.30
1678;DHT22;6034;46.864;15.216;2024-02-21T18:57:16;10.10;71.20
1678;DHT22;6034;46.864;15.216;2024-02-21T18:59:44;9.90;71.20
1678;DHT22;6034;46.864;15.216;2024-02-21T19:02:13;9.80;71.70
1678;DHT22;6034;46.864;15.216;2024-02-21T19:04:41;9.80;72.00
1678;DHT22;6034;46.864;15.216;2024-02-21T19:07:09;9.70;72.10
1678;DHT22;6034;46.864;15.216;2024-02-21T19:09:38;9.80;72.40
1678;DHT22;6034;46.864;15.216;2024-02-21T19:12:08;9.90;72.20
1678;DHT22;6034;46.864;15.216;2024-02-21T19:14:36;9.90;71.20
1678;DHT22;6034;46.864;15.216;2024-02-21T19:17:04;9.90;72.20
1678;DHT22;6034;46.864;15.216;2024-02-21T19:19:34;10.00;70.80
1678;DHT22;6034;46.864;15.216;2024-02-21T19:22:02;9.90;72.70
1678;DHT22;6034;46.864;15.216;2024-02-21T19:24:31;9.90;73.00
1678;DHT22;6034;46.864;15.216;2024-02-21T19:27:00;9.90;73.00
1678;DHT22;6034;46.864;15.216;2024-02-21T19:29:29;9.80;71.80
1678;DHT22;6034;46.864;15.216;2024-02-21T19:31:56;9.90;72.50
1678;DHT22;6034;46.864;15.216;2024-02-21T19:34:24;9.70;72.10
1678;DHT22;6034;46.864;15.216;2024-02-21T19:36:54;9.70;72.80
1678;DHT22;6034;46.864;15.216;2024-02-21T19:39:22;9.80;72.20
1678;DHT22;6034;46.864;15.216;2024-02-21T19:41:52;9.70;71.60
1678;DHT22;6034;46.864;15.216;2024-02-21T19:44:21;9.60;71.60
1678;DHT22;6034;46.864;15.216;2024-02-21T19:46:49;9.40;72.10
1678;DHT22;6034;46.864;15.216;2024-02-21T19:49:17;9.60;72.90
1678;DHT22;6034;46.864;15.216;2024-02-21T19:51:46;9.70;72.60
1678;DHT22;6034;46.864;15.216;2024-02-21T19:54:14;9.60;72.30
1678;DHT22;6034;46.864;15.216;2024-02-21T19:56:44;9.50;73.30
1678;DHT22;6034;46.864;15.216;2024-02-21T19:59:11;9.40;73.00
1678;DHT22;6034;46.864;15.216;2024-02-21T20:01:41;9.30;73.10
1678;DHT22;6034;46.864;15.216;2024-02-21T20:04:09;9.20;73.60
1678;DHT22;6034;46.864;15.216;2024-02-21T20:06:38;9.10;73.90
1678;DHT22;6034;46.864;15.216;2024-02-21T20:09:06;9.40;74.70
1678;DHT22;6034;46.864;15.216;2024-02-21T20:11:35;9.30;73.90
1678;DHT22;6034;46.864;15.216;2024-02-21T20:14:06;9.30;74.30
1678;DHT22;6034;46.864;15.216;2024-02-21T20:16:35;9.40;74.40
1678;DHT22;6034;46.864;15.216;2024-02-21T20:19:05;9.00;74.40
1678;DHT22;6034;46.864;15.216;2024-02-21T20:21:36;9.10;74.80
1678;DHT22;6034;46.864;15.216;2024-02-21T20:24:06;9.30;75.20
1678;DHT22;6034;46.864;15.216;2024-02-21T20:26:34;9.40;75.10
1678;DHT22;6034;46.864;15.216;2024-02-21T20:29:02;9.40;74.70
1678;DHT22;6034;46.864;15.216;2024-02-21T20:31:29;9.40;74.50
1678;DHT22;6034;46.864;15.216;2024-02-21T20:33:57;9.40;74.40
1678;DHT22;6034;46.864;15.216;2024-02-21T20:36:26;9.30;75.20
1678;DHT22;6034;46.864;15.216;2024-02-21T20:38:53;9.40;75.50
1678;DHT22;6034;46.864;15.216;2024-02-21T20:41:21;9.30;77.00
1678;DHT22;6034;46.864;15.216;2024-02-21T20:43:48;9.30;75.90
1678;DHT22;6034;46.864;15.216;2024-02-21T20:46:16;9.20;75.40
1678;DHT22;6034;46.864;15.216;2024-02-21T20:48:43;9.20;75.80
1678;DHT22;6034;46.864;15.216;2024-02-21T20:51:11;9.30;75.70
1678;DHT22;6034;46.864;15.216;2024-02-21T20:53:39;9.30;75.60
1678;DHT22;6034;46.864;15.216;2024-02-21T20:56:07;9.10;76.30
1678;DHT22;6034;46.864;15.216;2024-02-21T20:58:36;9.10;76.80
1678;DHT22;6034;46.864;15.216;2024-02-21T21:01:04;9.10;76.90
1678;DHT22;6034;46.864;15.216;2024-02-21T21:03:32;9.10;77.10
1678;DHT22;6034;46.864;15.216;2024-02-21T21:05:59;9.00;78.30
1678;DHT22;6034;46.864;15.216;2024-02-21T21:08:27;9.00;78.80
1678;DHT22;6034;46.864;15.216;2024-02-21T21:10:56;9.00;78.60
1678;DHT22;6034;46.864;15.216;2024-02-21T21:13:24;9.00;78.30
1678;DHT22;6034;46.864;15.216;2024-02-21T21:15:52;8.90;77.80
1678;DHT22;6034;46.864;15.216;2024-02-21T21:18:20;8.90;77.60
1678;DHT22;6034;46.864;15.216;2024-02-21T21:20:48;8.80;77.50
1678;DHT22;6034;46.864;15.216;2024-02-21T21:23:16;8.70;77.80
1678;DHT22;6034;46.864;15.216;2024-02-21T21:25:44;8.50;78.00
1678;DHT22;6034;46.864;15.216;2024-02-21T21:28:13;8.50;78.50
1678;DHT22;6034;46.864;15.216;2024-02-21T21:30:41;8.30;78.40
1678;DHT22;6034;46.864;15.216;2024-02-21T21:33:09;8.10;79.00
1678;DHT22;6034;46.864;15.216;2024-02-21T21:35:37;8.40;78.80
1678;DHT22;6034;46.864;15.216;2024-02-21T21:38:04;8.50;78.50
1678;DHT22;6034;46.864;15.216;2024-02-21T21:40:31;8.40;78.20
1678;DHT22;6034;46.864;15.216;2024-02-21T21:42:59;8.50;79.10
1678;DHT22;6034;46.864;15.216;2024-02-21T21:45:29;8.50;79.20
1678;DHT22;6034;46.864;15.216;2024-02-21T21:47:56;8.50;78.50
1678;DHT22;6034;46.864;15.216;2024-02-21T21:50:24;8.70;78.50
1678;DHT22;6034;46.864;15.216;2024-02-21T21:52:52;8.70;78.40
1678;DHT22;6034;46.864;15.216;2024-02-21T21:55:19;8.70;78.20
1678;DHT22;6034;46.864;15.216;2024-02-21T21:57:47;8.70;78.40
1678;DHT22;6034;46.864;15.216;2024-02-21T22:00:15;8.70;78.30